Time;durP1;ratioP1;P1;durP2;ratioP2;P2;SDS_P1;SDS_P2;PMS_P1;PMS_P2;Temp;Humidity;BMP_temperature;BMP_pressure;BME280_temperature;BME280_humidity;BME280_pressure;Samples;Min_cycle;Max_cycle;Signal;HPM_P1;HPM_P2
2022/11/27 00:01:17;;;;;;;16.60;6.70;;;;;;;7.14;100.00;102436.63;5072876;28;20528;-70
2022/11/27 00:03:45;;;;;;;24.77;6.20;;;;;;;7.06;100.00;102427.00;5071507;28;20480;-70
2022/11/27 00:06:14;;;;;;;21.73;7.20;;;;;;;7.01;100.00;102439.53;5072358;28;21026;-70
2022/11/27 00:08:41;;;;;;;12.47;6.40;;;;;;;6.93;100.00;102439.88;5072164;28;20492;-69
2022/11/27 00:11:10;;;;;;;14.40;6.67;;;;;;;6.75;100.00;102435.38;5072861;28;20453;-70
2022/11/27 00:13:37;;;;;;;15.33;6.27;;;;;;;6.73;100.00;102440.16;5071992;28;20552;-70
2022/11/27 00:16:05;;;;;;;15.63;6.17;;;;;;;6.71;100.00;102437.69;5072725;28;20444;-70
2022/11/27 00:18:32;;;;;;;15.03;6.93;;;;;;;6.75;100.00;102438.88;5070575;28;20564;-69
2022/11/27 00:21:02;;;;;;;17.50;5.57;;;;;;;6.77;100.00;102439.50;5072773;28;20456;-69
2022/11/27 00:23:31;;;;;;;12.60;5.80;;;;;;;6.86;100.00;102436.44;5071844;28;20488;-70
2022/11/27 00:25:58;;;;;;;21.73;6.60;;;;;;;6.83;100.00;102440.44;5072670;28;21013;-69
2022/11/27 00:28:24;;;;;;;18.57;6.50;;;;;;;6.80;100.00;102444.41;5072091;28;20456;-70
2022/11/27 00:30:51;;;;;;;14.37;6.00;;;;;;;6.81;100.00;102440.66;5071094;28;20464;-69
2022/11/27 00:33:18;;;;;;;17.87;7.30;;;;;;;6.86;100.00;102431.06;5072831;28;20465;-70
2022/11/27 00:35:44;;;;;;;16.07;6.70;;;;;;;6.82;100.00;102442.31;5072030;28;20549;-70
2022/11/27 00:38:11;;;;;;;11.67;5.60;;;;;;;6.80;100.00;102447.09;5072732;28;20487;-69
2022/11/27 00:40:39;;;;;;;18.10;6.67;;;;;;;6.87;100.00;102443.50;5070675;28;20489;-69
2022/11/27 00:43:05;;;;;;;12.20;6.20;;;;;;;6.92;100.00;102441.75;5072716;28;20465;-69
2022/11/27 00:45:32;;;;;;;12.00;6.07;;;;;;;6.98;100.00;102434.59;5071566;28;20489;-70
2022/11/27 00:47:59;;;;;;;11.33;5.80;;;;;;;7.01;100.00;102431.47;5072755;28;20515;-70
2022/11/27 00:50:25;;;;;;;9.93;4.47;;;;;;;7.00;100.00;102437.91;5071168;28;20463;-69
2022/11/27 00:52:52;;;;;;;12.00;6.17;;;;;;;6.98;100.00;102435.41;5072632;28;20471;-69
2022/11/27 00:55:18;;;;;;;15.67;6.97;;;;;;;6.92;100.00;102435.53;5071496;28;20917;-70
2022/11/27 00:57:46;;;;;;;13.60;6.43;;;;;;;6.98;100.00;102429.22;5071320;28;20997;-70
2022/11/27 01:00:14;;;;;;;17.20;5.63;;;;;;;7.01;100.00;102424.19;5070905;28;20488;-69
2022/11/27 01:02:41;;;;;;;12.80;5.27;;;;;;;7.01;100.00;102423.38;5072166;28;20499;-70
2022/11/27 01:05:08;;;;;;;12.73;5.93;;;;;;;7.00;100.00;102417.16;5070837;28;20486;-70
2022/11/27 01:07:34;;;;;;;13.80;5.70;;;;;;;7.03;100.00;102410.47;5071899;28;20488;-70
2022/11/27 01:10:01;;;;;;;21.43;6.23;;;;;;;6.98;100.00;102402.28;5072063;28;20811;-70
2022/11/27 01:12:28;;;;;;;14.70;6.27;;;;;;;7.03;100.00;102399.69;5072069;28;20550;-72
2022/11/27 01:14:56;;;;;;;14.60;6.77;;;;;;;7.02;100.00;102408.84;5071652;28;20477;-72
2022/11/27 01:17:22;;;;;;;17.20;7.50;;;;;;;7.06;100.00;102413.53;5072121;28;21056;-72
2022/11/27 01:19:49;;;;;;;20.43;7.63;;;;;;;7.03;100.00;102411.28;5074832;28;20476;-72
2022/11/27 01:22:16;;;;;;;22.00;7.43;;;;;;;7.07;100.00;102411.66;5073670;28;21041;-72
2022/11/27 01:24:43;;;;;;;23.20;6.90;;;;;;;7.13;100.00;102394.59;5074964;28;20460;-71
2022/11/27 01:27:10;;;;;;;11.13;5.80;;;;;;;7.14;100.00;102408.88;5075882;28;20433;-71
2022/11/27 01:29:36;;;;;;;13.13;5.77;;;;;;;7.13;100.00;102399.97;5075009;28;20487;-72
2022/11/27 01:32:05;;;;;;;11.30;5.30;;;;;;;7.16;100.00;102386.00;5073722;28;20468;-72
2022/11/27 01:34:31;;;;;;;14.20;6.70;;;;;;;7.18;100.00;102392.00;5074028;28;20460;-72
2022/11/27 01:36:58;;;;;;;13.83;6.57;;;;;;;7.16;100.00;102377.94;5075669;28;20563;-72
2022/11/27 01:39:24;;;;;;;18.40;6.70;;;;;;;7.13;100.00;102377.56;5074343;28;20566;-72
2022/11/27 01:41:51;;;;;;;14.40;6.60;;;;;;;7.09;100.00;102374.53;5075619;28;20901;-72
2022/11/27 01:44:51;;;;;;;15.50;6.47;;;;;;;7.11;100.00;102372.41;5073761;28;20469;-71
2022/11/27 01:47:29;;;;;;;19.40;6.60;;;;;;;7.13;100.00;102364.94;5055499;28;20444;-72
2022/11/27 01:50:03;;;;;;;15.53;6.43;;;;;;;7.11;100.00;102364.34;5062241;28;20542;-72
2022/11/27 01:52:34;;;;;;;14.23;6.70;;;;;;;7.07;100.00;102363.16;5075397;28;20500;-72
2022/11/27 01:55:04;;;;;;;16.83;6.43;;;;;;;7.07;100.00;102357.78;5074417;28;20453;-72
2022/11/27 01:57:37;;;;;;;13.57;5.87;;;;;;;7.12;100.00;102355.19;5074499;28;20473;-72
2022/11/27 02:00:06;;;;;;;14.50;7.00;;;;;;;7.11;100.00;102353.56;5074520;28;20907;-72
2022/11/27 02:02:34;;;;;;;14.10;6.50;;;;;;;7.10;100.00;102351.09;5075157;28;20508;-72
2022/11/27 02:05:01;;;;;;;13.87;7.00;;;;;;;7.13;100.00;102348.78;5073945;28;20496;-72
2022/11/27 02:07:27;;;;;;;13.83;6.20;;;;;;;7.10;100.00;102351.94;5075217;28;20433;-72
2022/11/27 02:09:54;;;;;;;16.53;6.93;;;;;;;6.99;100.00;102347.34;5074290;28;20484;-72
2022/11/27 02:12:24;;;;;;;11.60;5.93;;;;;;;7.02;100.00;102354.97;5073646;28;20512;-72
2022/11/27 02:15:00;;;;;;;14.87;5.90;;;;;;;7.01;100.00;102348.75;5072416;28;20457;-71
2022/11/27 02:17:36;;;;;;;20.47;7.33;;;;;;;6.96;100.00;102345.13;5072727;28;20832;-71
2022/11/27 02:20:19;;;;;;;13.07;6.10;;;;;;;6.85;100.00;102354.81;5074163;28;20426;-71
2022/11/27 02:23:15;;;;;;;14.27;6.73;;;;;;;6.82;100.00;102349.91;5074768;28;20548;-70
2022/11/27 02:25:51;;;;;;;12.60;5.03;;;;;;;6.78;100.00;102351.44;5072781;28;20458;-70
2022/11/27 02:28:41;;;;;;;15.63;5.80;;;;;;;6.66;100.00;102351.41;5074664;28;20435;-71
2022/11/27 02:31:15;;;;;;;15.70;5.60;;;;;;;6.61;100.00;102348.59;5073634;28;20460;-70
2022/11/27 02:33:46;;;;;;;18.33;6.00;;;;;;;6.59;100.00;102345.28;5074514;28;20497;-70
2022/11/27 02:36:18;;;;;;;15.37;6.63;;;;;;;6.61;100.00;102345.06;5073179;28;20487;-70
2022/11/27 02:38:51;;;;;;;14.43;6.23;;;;;;;6.53;100.00;102340.84;5073826;28;20473;-70
2022/11/27 02:41:24;;;;;;;12.70;6.63;;;;;;;6.51;100.00;102338.38;5072287;28;20548;-71
2022/11/27 02:43:52;;;;;;;13.20;6.60;;;;;;;6.61;100.00;102345.06;5074383;28;20475;-70
2022/11/27 02:46:21;;;;;;;16.57;6.67;;;;;;;6.66;100.00;102350.59;5072807;28;20468;-71
2022/11/27 02:48:53;;;;;;;14.70;6.37;;;;;;;6.68;100.00;102345.78;5072486;28;20461;-71
2022/11/27 02:51:22;;;;;;;13.50;6.27;;;;;;;6.72;100.00;102349.66;5074287;28;20429;-71
2022/11/27 02:53:53;;;;;;;18.33;5.97;;;;;;;6.78;100.00;102346.88;5073300;28;20552;-70
2022/11/27 02:56:23;;;;;;;18.40;7.83;;;;;;;6.85;100.00;102354.00;5074174;28;20450;-71
2022/11/27 02:58:52;;;;;;;17.20;6.97;;;;;;;6.91;100.00;102337.75;5072209;28;20564;-71
2022/11/27 03:01:23;;;;;;;20.10;7.03;;;;;;;6.99;100.00;102337.38;5073745;28;20966;-70
2022/11/27 03:03:55;;;;;;;11.93;5.83;;;;;;;7.00;100.00;102335.53;5072786;28;20477;-71
2022/11/27 03:06:26;;;;;;;19.20;7.80;;;;;;;7.02;100.00;102331.53;5074018;28;20434;-71
2022/11/27 03:08:57;;;;;;;17.00;6.37;;;;;;;7.05;100.00;102335.66;5071814;28;21048;-70
2022/11/27 03:11:26;;;;;;;19.90;7.63;;;;;;;7.08;100.00;102322.53;5073668;28;20508;-70
2022/11/27 03:13:55;;;;;;;15.93;6.13;;;;;;;7.09;100.00;102323.34;5072865;28;20480;-71
2022/11/27 03:16:34;;;;;;;19.90;7.57;;;;;;;7.04;100.00;102325.94;5073764;28;20532;-71
2022/11/27 03:19:12;;;;;;;13.30;5.60;;;;;;;7.07;100.00;102333.53;5072023;28;20512;-71
2022/11/27 03:21:41;;;;;;;17.07;6.30;;;;;;;7.07;100.00;102333.53;5073440;28;20425;-71
2022/11/27 03:24:08;;;;;;;14.30;6.80;;;;;;;7.07;100.00;102325.44;5073239;28;20512;-71
2022/11/27 03:26:36;;;;;;;12.60;6.17;;;;;;;7.08;100.00;102324.38;5072453;28;20437;-70
2022/11/27 03:29:06;;;;;;;14.17;6.00;;;;;;;7.09;100.00;102336.81;5072800;28;20456;-71
2022/11/27 03:31:34;;;;;;;14.03;6.00;;;;;;;7.06;100.00;102334.59;5072009;28;20456;-71
2022/11/27 03:34:01;;;;;;;13.00;5.83;;;;;;;7.04;100.00;102332.13;5073443;28;20465;-71
2022/11/27 03:36:28;;;;;;;16.27;5.37;;;;;;;7.03;100.00;102337.75;5072626;28;20492;-71
2022/11/27 03:38:55;;;;;;;13.43;6.17;;;;;;;6.94;100.00;102336.44;5073411;28;20489;-71
2022/11/27 03:41:30;;;;;;;14.73;7.10;;;;;;;6.92;100.00;102338.56;5070483;28;20453;-71
2022/11/27 03:44:03;;;;;;;10.80;5.47;;;;;;;6.89;100.00;102339.84;5073371;28;20460;-71
2022/11/27 03:46:43;;;;;;;14.53;6.40;;;;;;;6.88;100.00;102340.09;5072573;28;20575;-71
2022/11/27 03:49:18;;;;;;;15.63;6.23;;;;;;;6.86;100.00;102344.88;5073432;28;20428;-71
2022/11/27 03:51:52;;;;;;;20.80;7.10;;;;;;;6.85;100.00;102338.66;5071543;28;20459;-71
2022/11/27 03:54:31;;;;;;;11.37;5.47;;;;;;;6.82;100.00;102334.56;5071930;28;20499;-71
2022/11/27 03:57:02;;;;;;;16.60;6.40;;;;;;;6.85;100.00;102330.59;5073253;28;20454;-72
2022/11/27 03:59:32;;;;;;;16.40;5.63;;;;;;;6.81;100.00;102337.47;5072377;28;20603;-71
2022/11/27 04:02:00;;;;;;;12.40;5.67;;;;;;;6.83;100.00;102336.22;5071228;28;20457;-72
2022/11/27 04:04:26;;;;;;;13.43;6.17;;;;;;;6.83;100.00;102340.78;5072075;28;20481;-72
2022/11/27 04:06:53;;;;;;;13.63;5.83;;;;;;;6.76;100.00;102332.78;5072843;28;20441;-72
2022/11/27 04:09:20;;;;;;;15.67;6.23;;;;;;;6.71;100.00;102326.47;5072250;28;20440;-72
2022/11/27 04:11:46;;;;;;;15.60;6.80;;;;;;;6.73;100.00;102327.91;5071650;28;20492;-72
2022/11/27 04:14:13;;;;;;;11.67;5.63;;;;;;;6.68;100.00;102329.63;5052931;28;20473;-72
2022/11/27 04:16:40;;;;;;;18.47;5.37;;;;;;;6.60;100.00;102333.50;5052801;28;20471;-71
2022/11/27 04:19:08;;;;;;;18.60;6.00;;;;;;;6.57;100.00;102328.56;5072928;28;20568;-72
2022/11/27 04:21:34;;;;;;;12.97;5.60;;;;;;;6.56;100.00;102326.94;5071836;28;20544;-71
2022/11/27 04:24:01;;;;;;;14.70;6.33;;;;;;;6.55;100.00;102330.66;5071583;28;20557;-72
2022/11/27 04:26:28;;;;;;;12.30;5.50;;;;;;;6.50;100.00;102325.13;5073008;28;20481;-72
2022/11/27 04:28:54;;;;;;;14.00;6.43;;;;;;;6.46;100.00;102329.34;5072213;28;20544;-72
2022/11/27 04:31:21;;;;;;;16.37;6.13;;;;;;;6.44;100.00;102326.06;5072856;28;20445;-72
2022/11/27 04:33:47;;;;;;;13.80;6.13;;;;;;;6.38;100.00;102319.75;5070972;28;20556;-72
2022/11/27 04:36:15;;;;;;;12.80;5.70;;;;;;;6.32;100.00;102321.47;5072930;28;20445;-71
2022/11/27 04:38:42;;;;;;;13.30;5.60;;;;;;;6.29;100.00;102330.00;5071655;28;20485;-71
2022/11/27 04:41:08;;;;;;;14.37;6.57;;;;;;;6.24;100.00;102329.03;5072532;28;20529;-71
2022/11/27 04:43:35;;;;;;;21.80;6.07;;;;;;;6.22;100.00;102323.06;5071749;28;20531;-71
2022/11/27 04:46:01;;;;;;;18.90;5.90;;;;;;;6.12;100.00;102323.63;5077723;22;20585;-79
2022/11/27 04:48:28;;;;;;;15.93;6.33;;;;;;;6.01;100.00;102324.38;5061688;28;20473;-81
2022/11/27 04:50:55;;;;;;;16.33;5.37;;;;;;;5.87;100.00;102331.78;5059639;28;20568;-79
2022/11/27 04:53:23;;;;;;;19.13;5.97;;;;;;;5.87;100.00;102328.28;5061142;28;20895;-79
2022/11/27 04:55:50;;;;;;;24.73;7.30;;;;;;;5.78;100.00;102331.25;5057607;28;20490;-78
2022/11/27 04:58:17;;;;;;;17.07;6.63;;;;;;;5.85;100.00;102333.88;5038390;28;20517;-78
2022/11/27 05:00:44;;;;;;;16.23;7.50;;;;;;;5.82;100.00;102335.16;5039551;28;20443;-78
2022/11/27 05:03:11;;;;;;;11.80;6.13;;;;;;;5.78;100.00;102336.63;5059132;28;20442;-78
2022/11/27 05:05:37;;;;;;;13.60;5.20;;;;;;;5.75;100.00;102326.31;5059307;28;20947;-79
2022/11/27 05:08:04;;;;;;;16.80;8.20;;;;;;;5.71;100.00;102327.84;5061445;28;20521;-78
2022/11/27 05:10:32;;;;;;;18.30;7.77;;;;;;;5.67;100.00;102328.53;5058973;28;20529;-79
2022/11/27 05:12:59;;;;;;;24.83;7.23;;;;;;;5.65;100.00;102335.97;5038525;28;20478;-78
2022/11/27 05:15:25;;;;;;;13.53;6.57;;;;;;;5.58;100.00;102336.06;5038118;28;20949;-78
2022/11/27 05:17:52;;;;;;;19.53;7.63;;;;;;;5.50;100.00;102341.75;5057182;28;20579;-79
2022/11/27 05:20:19;;;;;;;13.97;6.80;;;;;;;5.41;100.00;102337.72;5058382;28;20535;-79
2022/11/27 05:22:47;;;;;;;22.67;6.80;;;;;;;5.39;100.00;102334.41;5059831;28;20529;-78
2022/11/27 05:25:13;;;;;;;13.93;6.10;;;;;;;5.39;100.00;102323.66;5063088;28;20462;-78
2022/11/27 05:27:41;;;;;;;20.80;7.83;;;;;;;5.35;100.00;102322.47;5046192;28;20550;-79
2022/11/27 05:30:09;;;;;;;13.07;5.43;;;;;;;5.26;100.00;102336.19;5038239;28;20585;-78
2022/11/27 05:32:35;;;;;;;15.00;6.97;;;;;;;5.15;100.00;102326.19;5047690;28;20549;-78
2022/11/27 05:35:02;;;;;;;15.17;6.03;;;;;;;5.16;100.00;102327.81;5057891;28;20521;-78
2022/11/27 05:37:29;;;;;;;17.87;6.10;;;;;;;5.10;100.00;102327.91;5057344;28;20454;-78
2022/11/27 05:39:55;;;;;;;19.60;7.40;;;;;;;5.02;100.00;102329.00;5057890;28;20566;-78
2022/11/27 05:42:22;;;;;;;15.63;6.80;;;;;;;5.02;100.00;102326.31;5056777;28;21102;-78
2022/11/27 05:44:50;;;;;;;19.90;5.77;;;;;;;5.02;100.00;102318.25;5057430;28;20880;-78
2022/11/27 05:47:17;;;;;;;17.83;6.70;;;;;;;5.00;100.00;102328.38;5056565;28;20867;-78
2022/11/27 05:49:43;;;;;;;13.53;6.13;;;;;;;4.88;100.00;102322.09;5057223;28;20532;-79
2022/11/27 05:52:10;;;;;;;15.80;5.87;;;;;;;4.91;100.00;102314.41;5051248;28;20546;-78
2022/11/27 05:54:36;;;;;;;13.30;6.67;;;;;;;4.91;100.00;102317.09;5052854;28;20549;-78
2022/11/27 05:57:03;;;;;;;13.03;6.57;;;;;;;4.89;100.00;102313.00;5057465;28;20553;-79
2022/11/27 05:59:30;;;;;;;13.50;5.90;;;;;;;4.79;100.00;102313.50;5044335;28;20505;-79
2022/11/27 06:01:58;;;;;;;21.13;7.07;;;;;;;4.74;100.00;102311.47;5038732;28;20550;-78
2022/11/27 06:04:24;;;;;;;17.30;7.00;;;;;;;4.74;100.00;102300.75;5038310;28;20585;-78
2022/11/27 06:06:51;;;;;;;17.53;5.93;;;;;;;4.76;100.00;102304.00;5038173;28;20939;-79
2022/11/27 06:09:17;;;;;;;21.57;8.20;;;;;;;4.68;100.00;102296.22;5048073;28;20462;-78
2022/11/27 06:11:44;;;;;;;19.57;8.23;;;;;;;4.60;100.00;102285.75;5056878;28;20459;-78
2022/11/27 06:14:11;;;;;;;14.17;6.20;;;;;;;4.53;100.00;102287.69;5056916;28;20456;-78
2022/11/27 06:16:38;;;;;;;16.80;6.50;;;;;;;4.57;100.00;102282.72;5056575;28;20505;-78
2022/11/27 06:19:07;;;;;;;17.40;7.37;;;;;;;4.56;100.00;102287.28;5057303;28;20565;-78
2022/11/27 06:21:34;;;;;;;16.67;8.33;;;;;;;4.51;100.00;102279.03;5056943;28;20454;-78
2022/11/27 06:24:02;;;;;;;16.97;7.70;;;;;;;4.53;100.00;102288.50;5057074;28;20985;-78
2022/11/27 06:26:31;;;;;;;14.60;6.60;;;;;;;4.50;100.00;102288.13;5055035;28;20565;-78
2022/11/27 06:28:59;;;;;;;30.40;7.23;;;;;;;4.48;100.00;102287.53;5056500;28;20525;-78
2022/11/27 06:31:28;;;;;;;19.17;6.50;;;;;;;4.45;100.00;102288.78;5053739;28;20520;-78
2022/11/27 06:33:56;;;;;;;22.13;8.93;;;;;;;4.44;100.00;102297.06;5041112;28;20489;-78
2022/11/27 06:36:26;;;;;;;16.00;6.53;;;;;;;4.46;100.00;102290.41;5048492;28;20561;-78
2022/11/27 06:38:53;;;;;;;16.63;7.00;;;;;;;4.47;100.00;102286.72;5048224;28;20624;-78
2022/11/27 06:41:22;;;;;;;19.30;7.87;;;;;;;4.47;100.00;102291.22;5055997;28;20898;-78
2022/11/27 06:43:49;;;;;;;16.80;7.90;;;;;;;4.44;100.00;102286.31;5049485;28;20462;-78
2022/11/27 06:46:19;;;;;;;19.80;7.00;;;;;;;4.40;100.00;102298.53;5055729;28;21050;-78
2022/11/27 06:48:47;;;;;;;20.60;8.03;;;;;;;4.37;100.00;102296.25;5054805;28;20541;-78
2022/11/27 06:51:16;;;;;;;15.80;7.20;;;;;;;4.34;100.00;102297.53;5056009;28;20944;-78
2022/11/27 06:53:44;;;;;;;13.50;5.73;;;;;;;4.25;100.00;102296.13;5040652;28;21023;-78
2022/11/27 06:56:12;;;;;;;13.30;6.40;;;;;;;4.24;100.00;102300.69;5035573;28;20455;-78
2022/11/27 06:58:39;;;;;;;22.50;7.93;;;;;;;4.21;100.00;102289.59;5051047;28;20576;-78
2022/11/27 07:01:07;;;;;;;18.80;7.30;;;;;;;4.15;100.00;102285.06;5056006;28;20513;-78
2022/11/27 07:03:34;;;;;;;24.60;8.40;;;;;;;4.20;100.00;102293.28;5054884;28;20462;-80
2022/11/27 07:06:01;;;;;;;15.80;7.53;;;;;;;4.22;100.00;102280.50;5053728;28;20562;-80
2022/11/27 07:08:28;;;;;;;18.53;7.40;;;;;;;4.20;100.00;102277.19;5054836;28;20530;-80
2022/11/27 07:11:01;;;;;;;15.57;7.73;;;;;;;4.21;100.00;102271.63;5046646;28;20463;-80
2022/11/27 07:13:28;;;;;;;17.63;7.77;;;;;;;4.18;100.00;102276.59;5048612;28;20914;-79
2022/11/27 07:15:55;;;;;;;15.83;7.03;;;;;;;4.30;100.00;102272.19;5034943;28;20542;-80
2022/11/27 07:18:21;;;;;;;14.87;7.43;;;;;;;4.27;100.00;102268.06;5034706;28;20537;-80
2022/11/27 07:20:51;;;;;;;27.20;8.47;;;;;;;4.26;100.00;102266.44;5034289;28;20529;-80
2022/11/27 07:23:18;;;;;;;21.20;7.60;;;;;;;4.29;100.00;102276.72;5050912;28;20533;-79
2022/11/27 07:25:45;;;;;;;19.23;8.63;;;;;;;4.35;100.00;102269.66;5054202;28;20485;-80
2022/11/27 07:28:13;;;;;;;17.53;6.73;;;;;;;4.38;100.00;102257.66;5034693;28;20538;-80
2022/11/27 07:30:39;;;;;;;15.87;7.20;;;;;;;4.43;100.00;102268.59;5048981;28;20564;-79
2022/11/27 07:33:06;;;;;;;23.80;8.43;;;;;;;4.47;100.00;102257.19;5046923;28;20465;-79
2022/11/27 07:35:32;;;;;;;22.40;7.20;;;;;;;4.50;100.00;102262.13;5035376;28;21026;-80
2022/11/27 07:37:59;;;;;;;13.83;7.17;;;;;;;4.50;100.00;102259.44;5036211;28;20538;-79
2022/11/27 07:40:26;;;;;;;19.40;7.37;;;;;;;4.53;100.00;102266.22;5036745;28;20660;-80
2022/11/27 07:42:52;;;;;;;20.30;8.50;;;;;;;4.52;100.00;102253.88;5035094;28;20530;-80
2022/11/27 07:45:20;;;;;;;21.50;7.70;;;;;;;4.45;100.00;102259.25;5034844;28;20524;-79
2022/11/27 07:47:47;;;;;;;18.10;6.63;;;;;;;4.47;100.00;102251.00;5034181;28;21063;-79
2022/11/27 07:50:13;;;;;;;16.20;7.17;;;;;;;4.42;100.00;102242.78;5034266;28;20530;-79
2022/11/27 07:52:40;;;;;;;19.20;7.43;;;;;;;4.45;100.00;102245.03;5034935;28;20537;-80
2022/11/27 07:55:07;;;;;;;23.90;8.77;;;;;;;4.48;100.00;102244.59;5034848;28;20522;-79
2022/11/27 07:57:34;;;;;;;15.07;7.60;;;;;;;4.47;100.00;102251.00;5033727;28;20581;-82
2022/11/27 08:00:00;;;;;;;23.07;7.70;;;;;;;4.47;100.00;102259.88;5034967;28;20982;-79
2022/11/27 08:02:28;;;;;;;17.67;7.43;;;;;;;4.52;100.00;102259.22;5034777;28;20454;-79
2022/11/27 08:04:55;;;;;;;16.87;6.93;;;;;;;4.50;100.00;102259.44;5035654;28;20458;-78
2022/11/27 08:07:27;;;;;;;22.97;7.70;;;;;;;4.51;100.00;102263.75;5034904;28;20530;-78
2022/11/27 08:09:53;;;;;;;22.83;7.47;;;;;;;4.48;100.00;102261.53;5034454;28;20519;-78
2022/11/27 08:12:20;;;;;;;19.47;7.43;;;;;;;4.45;100.00;102263.81;5034423;28;20537;-78
2022/11/27 08:14:47;;;;;;;19.90;8.60;;;;;;;4.39;100.00;102251.28;5034836;28;20457;-79
2022/11/27 08:17:13;;;;;;;16.73;7.60;;;;;;;4.41;100.00;102251.88;5033741;28;20891;-79
2022/11/27 08:19:41;;;;;;;15.63;6.93;;;;;;;4.42;100.00;102243.59;5034527;28;20486;-79
2022/11/27 08:22:12;;;;;;;15.83;7.23;;;;;;;4.44;100.00;102246.91;5037760;28;20529;-79
2022/11/27 08:24:38;;;;;;;18.33;6.80;;;;;;;4.49;100.00;102247.06;5039282;28;20491;-79
2022/11/27 08:27:05;;;;;;;18.07;6.53;;;;;;;4.48;100.00;102242.75;5039299;28;20554;-79
2022/11/27 08:29:31;;;;;;;21.67;8.20;;;;;;;4.53;100.00;102236.72;5042389;28;20526;-79
2022/11/27 08:31:58;;;;;;;21.50;7.50;;;;;;;4.50;100.00;102237.97;5041680;28;20485;-79
2022/11/27 08:34:25;;;;;;;17.30;7.80;;;;;;;4.55;100.00;102230.06;5042279;28;20451;-79
2022/11/27 08:36:53;;;;;;;16.67;6.67;;;;;;;4.59;100.00;102233.13;5057016;28;20558;-79
2022/11/27 08:39:20;;;;;;;15.10;7.40;;;;;;;4.65;100.00;102234.97;5064372;28;20481;-79
2022/11/27 08:41:47;;;;;;;14.90;7.10;;;;;;;4.68;100.00;102237.19;5058438;28;20576;-78
2022/11/27 08:44:13;;;;;;;19.43;8.03;;;;;;;4.67;100.00;102232.06;5050600;28;20486;-78
2022/11/27 08:46:40;;;;;;;23.10;6.40;;;;;;;4.80;100.00;102237.28;5043274;28;20502;-78
2022/11/27 08:49:07;;;;;;;15.83;6.70;;;;;;;4.88;100.00;102239.69;5053114;28;20497;-78
2022/11/27 08:51:33;;;;;;;13.67;6.30;;;;;;;4.90;100.00;102234.09;5063066;28;20481;-79
2022/11/27 08:54:01;;;;;;;13.27;6.27;;;;;;;4.91;100.00;102231.19;5060214;28;20544;-78
2022/11/27 08:56:28;;;;;;;13.90;6.87;;;;;;;4.99;100.00;102230.06;5062440;28;20489;-78
2022/11/27 08:58:55;;;;;;;20.63;8.07;;;;;;;4.99;100.00;102228.19;5061727;28;20902;-79
2022/11/27 09:01:24;;;;;;;17.50;6.80;;;;;;;5.02;100.00;102224.25;5062259;28;20441;-78
2022/11/27 09:03:51;;;;;;;20.07;8.13;;;;;;;5.06;100.00;102230.84;5062129;28;20898;-79
2022/11/27 09:06:20;;;;;;;22.17;6.90;;;;;;;5.16;100.00;102239.19;5061073;28;20500;-78
2022/11/27 09:08:47;;;;;;;16.93;6.60;;;;;;;5.20;100.00;102234.19;5060487;28;20465;-79
2022/11/27 09:11:16;;;;;;;13.87;6.03;;;;;;;5.27;100.00;102230.38;5062312;28;20520;-79
2022/11/27 09:13:43;;;;;;;15.50;7.90;;;;;;;5.29;100.00;102243.59;5061707;28;20978;-79
2022/11/27 09:16:12;;;;;;;13.93;6.40;;;;;;;5.36;100.00;102236.28;5062362;28;21018;-79
2022/11/27 09:18:39;;;;;;;14.63;7.37;;;;;;;5.38;100.00;102233.34;5062283;28;20896;-79
2022/11/27 09:21:07;;;;;;;15.07;7.33;;;;;;;5.39;100.00;102243.06;5063252;28;20528;-79
2022/11/27 09:23:34;;;;;;;20.60;7.83;;;;;;;5.46;100.00;102233.06;5064476;28;20482;-79
2022/11/27 09:26:02;;;;;;;19.20;7.57;;;;;;;5.49;100.00;102228.06;5061356;28;20619;-79
2022/11/27 09:28:31;;;;;;;14.97;6.87;;;;;;;5.50;100.00;102218.94;5061755;28;20446;-78
2022/11/27 09:31:00;;;;;;;18.57;6.50;;;;;;;5.53;100.00;102218.50;5060096;28;20589;-79
2022/11/27 09:33:28;;;;;;;13.37;5.47;;;;;;;5.60;100.00;102206.81;5061735;28;20872;-79
2022/11/27 09:35:55;;;;;;;17.33;6.47;;;;;;;5.66;100.00;102206.72;5060493;28;20541;-78
2022/11/27 09:38:22;;;;;;;29.73;7.13;;;;;;;5.75;100.00;102209.91;5061532;28;20589;-79
2022/11/27 09:40:50;;;;;;;17.00;6.60;;;;;;;5.82;100.00;102205.25;5061639;28;20490;-79
2022/11/27 09:43:18;;;;;;;16.17;6.50;;;;;;;5.81;100.00;102209.81;5060243;28;20553;-79
2022/11/27 09:45:49;;;;;;;14.77;6.40;;;;;;;5.92;100.00;102212.81;5060973;28;20463;-79
2022/11/27 09:48:21;;;;;;;16.77;6.53;;;;;;;5.97;100.00;102207.56;5059215;28;20485;-80
2022/11/27 09:50:52;;;;;;;15.20;6.37;;;;;;;6.05;100.00;102199.97;5061099;28;20528;-78
2022/11/27 09:53:27;;;;;;;19.90;8.20;;;;;;;6.14;100.00;102199.63;5058495;28;20458;-78
2022/11/27 09:55:57;;;;;;;16.73;7.20;;;;;;;6.15;100.00;102204.78;5059179;28;21035;-78
2022/11/27 09:58:36;;;;;;;19.30;6.37;;;;;;;6.15;100.00;102203.97;5058260;28;20553;-78
2022/11/27 10:01:10;;;;;;;17.60;6.63;;;;;;;6.20;100.00;102201.44;5056152;28;20477;-77
2022/11/27 10:03:37;;;;;;;15.90;7.00;;;;;;;6.24;100.00;102211.50;5054713;28;20533;-78
2022/11/27 10:06:20;;;;;;;13.07;5.93;;;;;;;6.30;100.00;102212.44;5055520;28;20549;-76
2022/11/27 10:08:56;;;;;;;14.87;6.97;;;;;;;6.34;100.00;102204.72;5054737;28;20458;-77
2022/11/27 10:11:30;;;;;;;13.33;6.30;;;;;;;6.40;100.00;102201.09;5053896;28;21269;-77
2022/11/27 10:14:07;;;;;;;20.33;6.33;;;;;;;6.45;100.00;102204.72;5054705;28;20524;-77
2022/11/27 10:16:40;;;;;;;13.80;6.50;;;;;;;6.47;100.00;102204.50;5054034;28;20922;-78
2022/11/27 10:19:26;;;;;;;14.60;6.50;;;;;;;6.49;100.00;102194.28;5054107;28;20454;-76
2022/11/27 10:21:57;;;;;;;16.70;6.33;;;;;;;6.57;100.00;102192.06;5055463;28;20513;-77
2022/11/27 10:24:35;;;;;;;14.43;6.33;;;;;;;6.64;100.00;102185.75;5054887;28;20614;-77
2022/11/27 10:27:10;;;;;;;15.80;5.80;;;;;;;6.73;100.00;102200.50;5054387;28;20484;-78
2022/11/27 10:29:41;;;;;;;12.63;6.37;;;;;;;6.78;100.00;102187.97;5055574;28;20540;-77
2022/11/27 10:32:14;;;;;;;17.07;6.80;;;;;;;6.79;100.00;102186.09;5054850;28;20481;-78
2022/11/27 10:34:44;;;;;;;12.03;4.53;;;;;;;6.85;99.70;102181.63;5053193;28;20545;-79
2022/11/27 10:37:18;;;;;;;12.07;5.77;;;;;;;6.87;99.25;102184.94;5054431;28;20588;-77
2022/11/27 10:39:48;;;;;;;14.83;5.47;;;;;;;6.98;99.11;102184.06;5054338;28;20818;-77
2022/11/27 10:42:22;;;;;;;18.63;5.30;;;;;;;7.03;98.12;102185.00;5055628;28;20502;-77
2022/11/27 10:44:52;;;;;;;10.43;5.07;;;;;;;7.13;97.55;102184.41;5054758;28;20549;-77
2022/11/27 10:47:22;;;;;;;13.93;5.50;;;;;;;7.22;97.17;102176.78;5054806;28;20486;-77
2022/11/27 10:49:49;;;;;;;15.87;5.97;;;;;;;7.33;96.93;102167.81;5053813;28;20960;-78
2022/11/27 10:52:19;;;;;;;13.00;5.27;;;;;;;7.38;96.32;102169.78;5055534;28;20518;-77
2022/11/27 10:54:49;;;;;;;11.00;4.50;;;;;;;7.46;96.16;102167.53;5069726;22;20582;-69
2022/11/27 10:57:43;;;;;;;16.43;5.83;;;;;;;7.59;95.71;102166.41;5054200;28;20808;-67
2022/11/27 11:00:13;;;;;;;8.50;4.00;;;;;;;7.69;95.17;102158.50;5053005;28;20477;-67
2022/11/27 11:02:42;;;;;;;17.87;5.00;;;;;;;7.74;95.10;102166.69;5051821;28;20969;-66
2022/11/27 11:05:23;;;;;;;12.87;5.00;;;;;;;7.79;94.54;102155.16;5051477;28;20454;-66
2022/11/27 11:07:55;;;;;;;12.00;5.47;;;;;;;7.97;94.04;102165.75;5044090;28;20977;-67
2022/11/27 11:10:26;;;;;;;9.60;4.17;;;;;;;8.07;92.55;102175.88;5053717;28;20431;-67
2022/11/27 11:19:29;;;;;;;10.60;4.17;;;;;;;8.47;91.10;102159.53;4980860;28;20807;-70
2022/11/27 11:21:57;;;;;;;14.10;6.00;;;;;;;8.66;90.46;102151.16;4988363;28;20453;-71
2022/11/27 11:24:28;;;;;;;13.33;4.50;;;;;;;8.86;89.77;102147.91;4990298;28;20461;-71
2022/11/27 11:26:58;;;;;;;16.23;5.23;;;;;;;9.49;88.60;102141.06;4992046;28;20475;-72
2022/11/27 11:29:36;;;;;;;9.73;4.30;;;;;;;10.67;85.26;102151.75;4989788;28;20457;-70
2022/11/27 11:32:08;;;;;;;11.23;4.00;;;;;;;11.83;78.55;102149.69;4990322;28;20982;-70